sensor_id;sensor_type;location;lat;lon;timestamp;P1;durP1;ratioP1;P2;durP2;ratioP2
11957;SDS011;6039;52.576;13.348;2022-12-24T00:03:32;6.53;;;3.57;;
11957;SDS011;6039;52.576;13.348;2022-12-24T00:08:39;5.33;;;3.57;;
11957;SDS011;6039;52.576;13.348;2022-12-24T00:13:43;8.50;;;3.27;;
11957;SDS011;6039;52.576;13.348;2022-12-24T00:18:47;6.27;;;3.70;;
11957;SDS011;6039;52.576;13.348;2022-12-24T00:23:54;4.67;;;3.03;;
11957;SDS011;6039;52.576;13.348;2022-12-24T00:28:58;5.87;;;3.27;;
11957;SDS011;6039;52.576;13.348;2022-12-24T00:34:02;9.13;;;3.33;;
11957;SDS011;6039;52.576;13.348;2022-12-24T00:39:10;6.40;;;3.67;;
11957;SDS011;6039;52.576;13.348;2022-12-24T00:44:14;6.03;;;3.23;;
11957;SDS011;6039;52.576;13.348;2022-12-24T00:49:18;5.40;;;3.47;;
11957;SDS011;6039;52.576;13.348;2022-12-24T00:54:25;6.40;;;3.40;;
11957;SDS011;6039;52.576;13.348;2022-12-24T00:59:29;6.23;;;3.97;;
11957;SDS011;6039;52.576;13.348;2022-12-24T01:04:33;7.60;;;4.33;;
11957;SDS011;6039;52.576;13.348;2022-12-24T01:09:52;8.33;;;4.33;;
11957;SDS011;6039;52.576;13.348;2022-12-24T01:14:56;9.50;;;4.97;;
11957;SDS011;6039;52.576;13.348;2022-12-24T01:20:00;7.93;;;4.87;;
11957;SDS011;6039;52.576;13.348;2022-12-24T01:25:08;8.00;;;5.10;;
11957;SDS011;6039;52.576;13.348;2022-12-24T01:30:13;10.30;;;5.37;;
11957;SDS011;6039;52.576;13.348;2022-12-24T01:35:17;9.57;;;4.93;;
11957;SDS011;6039;52.576;13.348;2022-12-24T01:40:24;9.13;;;5.37;;
11957;SDS011;6039;52.576;13.348;2022-12-24T01:45:45;13.43;;;5.50;;
11957;SDS011;6039;52.576;13.348;2022-12-24T01:50:52;9.67;;;4.80;;
11957;SDS011;6039;52.576;13.348;2022-12-24T01:56:02;9.43;;;4.93;;
11957;SDS011;6039;52.576;13.348;2022-12-24T02:01:08;7.03;;;4.50;;
11957;SDS011;6039;52.576;13.348;2022-12-24T02:06:12;10.47;;;5.40;;
11957;SDS011;6039;52.576;13.348;2022-12-24T02:11:20;8.80;;;4.90;;
11957;SDS011;6039;52.576;13.348;2022-12-24T02:16:28;9.00;;;4.80;;
11957;SDS011;6039;52.576;13.348;2022-12-24T02:21:39;9.10;;;4.93;;
11957;SDS011;6039;52.576;13.348;2022-12-24T02:26:59;7.37;;;4.23;;
11957;SDS011;6039;52.576;13.348;2022-12-24T02:32:17;8.33;;;4.90;;
11957;SDS011;6039;52.576;13.348;2022-12-24T02:37:24;8.23;;;4.57;;
11957;SDS011;6039;52.576;13.348;2022-12-24T02:42:31;9.23;;;5.20;;
11957;SDS011;6039;52.576;13.348;2022-12-24T02:47:41;10.83;;;5.30;;
11957;SDS011;6039;52.576;13.348;2022-12-24T02:52:47;9.27;;;4.60;;
11957;SDS011;6039;52.576;13.348;2022-12-24T02:58:07;9.73;;;5.47;;
11957;SDS011;6039;52.576;13.348;2022-12-24T03:03:22;9.67;;;5.07;;
11957;SDS011;6039;52.576;13.348;2022-12-24T03:08:37;8.17;;;4.83;;
11957;SDS011;6039;52.576;13.348;2022-12-24T03:13:45;8.93;;;5.10;;
11957;SDS011;6039;52.576;13.348;2022-12-24T03:18:53;9.30;;;4.73;;
11957;SDS011;6039;52.576;13.348;2022-12-24T03:23:58;9.63;;;5.20;;
11957;SDS011;6039;52.576;13.348;2022-12-24T03:29:03;10.83;;;5.40;;
11957;SDS011;6039;52.576;13.348;2022-12-24T03:34:10;9.10;;;5.53;;
11957;SDS011;6039;52.576;13.348;2022-12-24T03:39:14;9.27;;;5.40;;
11957;SDS011;6039;52.576;13.348;2022-12-24T03:44:19;10.10;;;4.70;;
11957;SDS011;6039;52.576;13.348;2022-12-24T03:49:25;8.90;;;5.13;;
11957;SDS011;6039;52.576;13.348;2022-12-24T03:54:29;9.17;;;4.90;;
11957;SDS011;6039;52.576;13.348;2022-12-24T03:59:33;9.37;;;5.23;;
11957;SDS011;6039;52.576;13.348;2022-12-24T04:04:40;10.40;;;4.70;;
11957;SDS011;6039;52.576;13.348;2022-12-24T04:09:44;10.20;;;4.77;;
11957;SDS011;6039;52.576;13.348;2022-12-24T04:14:48;10.13;;;5.47;;
11957;SDS011;6039;52.576;13.348;2022-12-24T04:19:54;8.23;;;4.50;;
11957;SDS011;6039;52.576;13.348;2022-12-24T04:24:58;8.17;;;4.70;;
11957;SDS011;6039;52.576;13.348;2022-12-24T04:30:03;7.73;;;4.97;;
11957;SDS011;6039;52.576;13.348;2022-12-24T04:35:10;8.10;;;4.57;;
11957;SDS011;6039;52.576;13.348;2022-12-24T04:40:14;8.30;;;5.03;;
11957;SDS011;6039;52.576;13.348;2022-12-24T04:45:18;11.47;;;4.87;;
11957;SDS011;6039;52.576;13.348;2022-12-24T04:50:25;8.33;;;5.03;;
11957;SDS011;6039;52.576;13.348;2022-12-24T04:55:29;9.50;;;5.10;;
11957;SDS011;6039;52.576;13.348;2022-12-24T05:00:33;7.90;;;5.00;;
11957;SDS011;6039;52.576;13.348;2022-12-24T05:05:40;8.00;;;4.57;;
11957;SDS011;6039;52.576;13.348;2022-12-24T05:10:44;9.13;;;4.50;;
11957;SDS011;6039;52.576;13.348;2022-12-24T05:15:57;7.90;;;4.70;;
11957;SDS011;6039;52.576;13.348;2022-12-24T05:21:06;9.17;;;5.13;;
11957;SDS011;6039;52.576;13.348;2022-12-24T05:26:12;8.93;;;4.67;;
11957;SDS011;6039;52.576;13.348;2022-12-24T05:31:24;8.70;;;4.97;;
11957;SDS011;6039;52.576;13.348;2022-12-24T05:36:32;7.23;;;4.23;;
11957;SDS011;6039;52.576;13.348;2022-12-24T05:41:36;6.93;;;4.10;;
11957;SDS011;6039;52.576;13.348;2022-12-24T05:46:41;8.60;;;4.70;;
11957;SDS011;6039;52.576;13.348;2022-12-24T05:51:48;8.07;;;4.30;;
11957;SDS011;6039;52.576;13.348;2022-12-24T05:56:53;8.50;;;4.40;;
11957;SDS011;6039;52.576;13.348;2022-12-24T06:01:57;8.37;;;4.70;;
11957;SDS011;6039;52.576;13.348;2022-12-24T06:07:03;7.87;;;4.20;;
11957;SDS011;6039;52.576;13.348;2022-12-24T06:12:07;9.23;;;4.90;;
11957;SDS011;6039;52.576;13.348;2022-12-24T06:17:11;6.77;;;4.33;;
11957;SDS011;6039;52.576;13.348;2022-12-24T06:22:18;8.40;;;4.80;;
11957;SDS011;6039;52.576;13.348;2022-12-24T06:27:22;6.73;;;4.47;;
11957;SDS011;6039;52.576;13.348;2022-12-24T06:32:26;7.70;;;4.83;;
11957;SDS011;6039;52.576;13.348;2022-12-24T06:37:33;8.10;;;4.37;;
11957;SDS011;6039;52.576;13.348;2022-12-24T06:42:37;8.70;;;4.77;;
11957;SDS011;6039;52.576;13.348;2022-12-24T06:47:41;8.53;;;4.63;;
11957;SDS011;6039;52.576;13.348;2022-12-24T06:52:47;9.50;;;4.27;;
11957;SDS011;6039;52.576;13.348;2022-12-24T06:57:51;9.80;;;4.90;;
11957;SDS011;6039;52.576;13.348;2022-12-24T07:02:55;9.20;;;4.87;;
11957;SDS011;6039;52.576;13.348;2022-12-24T07:08:02;8.93;;;4.77;;
11957;SDS011;6039;52.576;13.348;2022-12-24T07:13:06;10.30;;;5.17;;
11957;SDS011;6039;52.576;13.348;2022-12-24T07:18:10;8.87;;;4.60;;
11957;SDS011;6039;52.576;13.348;2022-12-24T07:23:17;8.23;;;4.67;;
11957;SDS011;6039;52.576;13.348;2022-12-24T07:28:21;8.07;;;4.80;;
11957;SDS011;6039;52.576;13.348;2022-12-24T07:33:25;8.37;;;5.13;;
11957;SDS011;6039;52.576;13.348;2022-12-24T07:38:32;7.97;;;4.30;;
11957;SDS011;6039;52.576;13.348;2022-12-24T07:43:36;10.73;;;5.63;;
11957;SDS011;6039;52.576;13.348;2022-12-24T07:48:40;10.70;;;5.63;;
11957;SDS011;6039;52.576;13.348;2022-12-24T07:53:47;8.43;;;4.87;;
11957;SDS011;6039;52.576;13.348;2022-12-24T07:58:51;9.33;;;5.10;;
11957;SDS011;6039;52.576;13.348;2022-12-24T08:03:54;9.73;;;5.33;;
11957;SDS011;6039;52.576;13.348;2022-12-24T08:09:01;10.73;;;6.43;;
11957;SDS011;6039;52.576;13.348;2022-12-24T08:14:05;12.33;;;5.97;;
11957;SDS011;6039;52.576;13.348;2022-12-24T08:19:09;10.47;;;5.57;;
11957;SDS011;6039;52.576;13.348;2022-12-24T08:24:16;9.43;;;5.37;;
11957;SDS011;6039;52.576;13.348;2022-12-24T08:29:20;9.73;;;5.17;;
11957;SDS011;6039;52.576;13.348;2022-12-24T08:34:24;10.40;;;6.17;;
11957;SDS011;6039;52.576;13.348;2022-12-24T08:39:30;12.90;;;6.67;;
11957;SDS011;6039;52.576;13.348;2022-12-24T08:44:34;10.20;;;5.53;;
11957;SDS011;6039;52.576;13.348;2022-12-24T08:49:38;10.10;;;5.00;;
11957;SDS011;6039;52.576;13.348;2022-12-24T08:54:45;9.63;;;5.10;;
11957;SDS011;6039;52.576;13.348;2022-12-24T08:59:49;8.87;;;5.10;;
11957;SDS011;6039;52.576;13.348;2022-12-24T09:04:53;10.93;;;5.20;;
11957;SDS011;6039;52.576;13.348;2022-12-24T09:09:59;9.97;;;5.13;;
11957;SDS011;6039;52.576;13.348;2022-12-24T09:15:04;10.60;;;5.90;;
11957;SDS011;6039;52.576;13.348;2022-12-24T09:20:09;9.63;;;4.90;;
11957;SDS011;6039;52.576;13.348;2022-12-24T09:25:16;7.93;;;4.40;;
11957;SDS011;6039;52.576;13.348;2022-12-24T09:30:20;9.83;;;5.17;;
11957;SDS011;6039;52.576;13.348;2022-12-24T09:35:24;7.73;;;5.13;;
11957;SDS011;6039;52.576;13.348;2022-12-24T09:40:32;9.67;;;5.20;;
11957;SDS011;6039;52.576;13.348;2022-12-24T09:45:37;13.23;;;5.57;;
11957;SDS011;6039;52.576;13.348;2022-12-24T09:50:45;10.40;;;5.20;;
11957;SDS011;6039;52.576;13.348;2022-12-24T09:55:57;11.53;;;5.83;;
11957;SDS011;6039;52.576;13.348;2022-12-24T10:01:02;8.53;;;5.37;;
11957;SDS011;6039;52.576;13.348;2022-12-24T10:06:07;11.37;;;6.23;;
11957;SDS011;6039;52.576;13.348;2022-12-24T10:11:18;9.97;;;5.77;;
11957;SDS011;6039;52.576;13.348;2022-12-24T10:16:26;11.03;;;5.60;;
11957;SDS011;6039;52.576;13.348;2022-12-24T10:21:36;10.27;;;5.57;;
11957;SDS011;6039;52.576;13.348;2022-12-24T10:26:47;10.37;;;5.77;;
11957;SDS011;6039;52.576;13.348;2022-12-24T10:31:55;11.10;;;6.00;;
11957;SDS011;6039;52.576;13.348;2022-12-24T10:37:08;11.37;;;5.97;;
11957;SDS011;6039;52.576;13.348;2022-12-24T10:42:29;10.97;;;5.73;;
11957;SDS011;6039;52.576;13.348;2022-12-24T10:47:38;10.50;;;5.57;;
11957;SDS011;6039;52.576;13.348;2022-12-24T10:52:43;13.60;;;7.03;;
11957;SDS011;6039;52.576;13.348;2022-12-24T10:57:59;11.07;;;5.40;;
11957;SDS011;6039;52.576;13.348;2022-12-24T11:03:05;9.83;;;6.00;;
11957;SDS011;6039;52.576;13.348;2022-12-24T11:08:21;13.40;;;7.00;;
11957;SDS011;6039;52.576;13.348;2022-12-24T11:13:28;12.83;;;6.37;;
11957;SDS011;6039;52.576;13.348;2022-12-24T11:18:35;11.23;;;6.23;;
11957;SDS011;6039;52.576;13.348;2022-12-24T11:23:39;13.83;;;6.30;;
11957;SDS011;6039;52.576;13.348;2022-12-24T11:29:11;12.27;;;5.80;;
11957;SDS011;6039;52.576;13.348;2022-12-24T11:34:20;13.00;;;5.97;;
11957;SDS011;6039;52.576;13.348;2022-12-24T11:39:26;9.30;;;5.70;;
11957;SDS011;6039;52.576;13.348;2022-12-24T11:44:33;12.40;;;5.80;;
11957;SDS011;6039;52.576;13.348;2022-12-24T11:49:37;11.93;;;6.03;;
11957;SDS011;6039;52.576;13.348;2022-12-24T11:54:42;11.70;;;5.67;;
11957;SDS011;6039;52.576;13.348;2022-12-24T11:59:53;13.07;;;6.20;;
11957;SDS011;6039;52.576;13.348;2022-12-24T12:04:58;11.60;;;6.43;;
11957;SDS011;6039;52.576;13.348;2022-12-24T12:10:06;9.07;;;5.33;;
11957;SDS011;6039;52.576;13.348;2022-12-24T12:15:20;9.57;;;5.60;;
11957;SDS011;6039;52.576;13.348;2022-12-24T12:20:29;8.70;;;4.77;;
11957;SDS011;6039;52.576;13.348;2022-12-24T12:25:35;9.57;;;5.00;;
11957;SDS011;6039;52.576;13.348;2022-12-24T12:30:46;9.90;;;5.27;;
11957;SDS011;6039;52.576;13.348;2022-12-24T12:35:56;8.00;;;5.17;;
11957;SDS011;6039;52.576;13.348;2022-12-24T12:41:07;8.47;;;5.20;;
11957;SDS011;6039;52.576;13.348;2022-12-24T12:46:37;8.17;;;4.43;;
11957;SDS011;6039;52.576;13.348;2022-12-24T12:51:51;9.07;;;4.97;;
11957;SDS011;6039;52.576;13.348;2022-12-24T12:56:59;8.77;;;5.03;;
11957;SDS011;6039;52.576;13.348;2022-12-24T13:02:16;7.93;;;4.80;;
11957;SDS011;6039;52.576;13.348;2022-12-24T13:07:36;7.67;;;4.47;;
11957;SDS011;6039;52.576;13.348;2022-12-24T13:12:57;7.83;;;4.83;;
11957;SDS011;6039;52.576;13.348;2022-12-24T13:24:03;8.67;;;4.50;;
11957;SDS011;6039;52.576;13.348;2022-12-24T13:34:44;10.20;;;5.50;;
11957;SDS011;6039;52.576;13.348;2022-12-24T13:40:00;9.37;;;5.23;;
11957;SDS011;6039;52.576;13.348;2022-12-24T13:50:51;8.03;;;4.83;;
11957;SDS011;6039;52.576;13.348;2022-12-24T13:55:57;10.43;;;5.23;;
11957;SDS011;6039;52.576;13.348;2022-12-24T14:01:05;7.23;;;4.23;;
11957;SDS011;6039;52.576;13.348;2022-12-24T14:06:19;8.27;;;4.47;;
11957;SDS011;6039;52.576;13.348;2022-12-24T14:11:25;6.77;;;4.27;;
11957;SDS011;6039;52.576;13.348;2022-12-24T14:16:29;8.57;;;4.27;;
11957;SDS011;6039;52.576;13.348;2022-12-24T14:21:50;5.87;;;3.70;;
11957;SDS011;6039;52.576;13.348;2022-12-24T14:26:58;8.90;;;3.50;;
11957;SDS011;6039;52.576;13.348;2022-12-24T14:32:11;9.20;;;3.83;;
11957;SDS011;6039;52.576;13.348;2022-12-24T14:37:19;7.53;;;4.07;;
11957;SDS011;6039;52.576;13.348;2022-12-24T14:42:28;6.80;;;3.40;;
11957;SDS011;6039;52.576;13.348;2022-12-24T14:47:36;6.43;;;3.33;;
11957;SDS011;6039;52.576;13.348;2022-12-24T14:52:49;10.57;;;3.27;;
11957;SDS011;6039;52.576;13.348;2022-12-24T15:03:24;10.23;;;3.87;;
11957;SDS011;6039;52.576;13.348;2022-12-24T15:08:33;8.03;;;4.20;;
11957;SDS011;6039;52.576;13.348;2022-12-24T15:13:40;6.20;;;3.23;;
11957;SDS011;6039;52.576;13.348;2022-12-24T15:18:46;5.90;;;3.73;;
11957;SDS011;6039;52.576;13.348;2022-12-24T15:23:54;7.90;;;3.20;;
11957;SDS011;6039;52.576;13.348;2022-12-24T15:28:59;7.20;;;3.13;;
11957;SDS011;6039;52.576;13.348;2022-12-24T15:34:03;12.47;;;3.33;;
11957;SDS011;6039;52.576;13.348;2022-12-24T15:39:12;8.50;;;3.20;;
11957;SDS011;6039;52.576;13.348;2022-12-24T15:44:17;5.43;;;2.93;;
11957;SDS011;6039;52.576;13.348;2022-12-24T15:49:21;13.17;;;3.70;;
11957;SDS011;6039;52.576;13.348;2022-12-24T15:54:29;10.43;;;4.17;;
11957;SDS011;6039;52.576;13.348;2022-12-24T15:59:35;6.33;;;3.43;;
11957;SDS011;6039;52.576;13.348;2022-12-24T16:04:39;9.77;;;3.53;;
11957;SDS011;6039;52.576;13.348;2022-12-24T16:09:45;9.03;;;3.70;;
11957;SDS011;6039;52.576;13.348;2022-12-24T16:14:51;8.13;;;2.80;;
11957;SDS011;6039;52.576;13.348;2022-12-24T16:20:03;11.17;;;4.30;;
11957;SDS011;6039;52.576;13.348;2022-12-24T16:25:23;8.73;;;3.30;;
11957;SDS011;6039;52.576;13.348;2022-12-24T16:30:27;8.20;;;3.33;;
11957;SDS011;6039;52.576;13.348;2022-12-24T16:35:31;10.50;;;3.83;;
11957;SDS011;6039;52.576;13.348;2022-12-24T16:40:40;8.47;;;3.90;;
11957;SDS011;6039;52.576;13.348;2022-12-24T16:45:44;9.47;;;4.53;;
11957;SDS011;6039;52.576;13.348;2022-12-24T16:50:49;12.30;;;5.10;;
11957;SDS011;6039;52.576;13.348;2022-12-24T16:55:56;10.83;;;4.70;;
11957;SDS011;6039;52.576;13.348;2022-12-24T17:01:05;15.97;;;4.77;;
11957;SDS011;6039;52.576;13.348;2022-12-24T17:06:10;9.20;;;4.27;;
11957;SDS011;6039;52.576;13.348;2022-12-24T17:11:16;9.53;;;3.90;;
11957;SDS011;6039;52.576;13.348;2022-12-24T17:16:25;7.30;;;3.50;;
11957;SDS011;6039;52.576;13.348;2022-12-24T17:21:29;10.50;;;4.03;;
11957;SDS011;6039;52.576;13.348;2022-12-24T17:26:36;11.87;;;5.67;;
11957;SDS011;6039;52.576;13.348;2022-12-24T17:31:41;14.73;;;4.77;;
11957;SDS011;6039;52.576;13.348;2022-12-24T17:36:45;13.73;;;5.37;;
11957;SDS011;6039;52.576;13.348;2022-12-24T17:41:51;9.73;;;4.30;;
11957;SDS011;6039;52.576;13.348;2022-12-24T17:46:56;12.00;;;4.60;;
11957;SDS011;6039;52.576;13.348;2022-12-24T17:52:00;12.13;;;4.70;;
11957;SDS011;6039;52.576;13.348;2022-12-24T17:57:07;13.40;;;4.43;;
11957;SDS011;6039;52.576;13.348;2022-12-24T18:02:11;12.70;;;5.00;;
11957;SDS011;6039;52.576;13.348;2022-12-24T18:07:15;12.33;;;4.77;;
11957;SDS011;6039;52.576;13.348;2022-12-24T18:12:21;11.13;;;5.63;;
11957;SDS011;6039;52.576;13.348;2022-12-24T18:17:25;10.33;;;4.37;;
11957;SDS011;6039;52.576;13.348;2022-12-24T18:22:29;6.93;;;4.30;;
11957;SDS011;6039;52.576;13.348;2022-12-24T18:27:36;8.73;;;4.33;;
11957;SDS011;6039;52.576;13.348;2022-12-24T18:32:40;6.90;;;3.87;;
11957;SDS011;6039;52.576;13.348;2022-12-24T18:37:46;9.53;;;4.07;;
11957;SDS011;6039;52.576;13.348;2022-12-24T18:42:53;11.70;;;4.57;;
11957;SDS011;6039;52.576;13.348;2022-12-24T18:47:57;9.47;;;4.47;;
11957;SDS011;6039;52.576;13.348;2022-12-24T18:53:01;8.77;;;4.27;;
11957;SDS011;6039;52.576;13.348;2022-12-24T18:58:08;8.60;;;4.27;;
11957;SDS011;6039;52.576;13.348;2022-12-24T19:03:12;12.60;;;4.50;;
11957;SDS011;6039;52.576;13.348;2022-12-24T19:08:16;7.73;;;4.23;;
11957;SDS011;6039;52.576;13.348;2022-12-24T19:13:23;8.27;;;4.17;;
11957;SDS011;6039;52.576;13.348;2022-12-24T19:18:27;10.50;;;3.60;;
11957;SDS011;6039;52.576;13.348;2022-12-24T19:23:31;7.10;;;4.10;;
11957;SDS011;6039;52.576;13.348;2022-12-24T19:28:38;10.20;;;4.60;;
11957;SDS011;6039;52.576;13.348;2022-12-24T19:33:43;8.47;;;3.60;;
11957;SDS011;6039;52.576;13.348;2022-12-24T19:38:48;7.90;;;3.17;;
11957;SDS011;6039;52.576;13.348;2022-12-24T19:43:55;7.73;;;3.93;;
11957;SDS011;6039;52.576;13.348;2022-12-24T19:49:02;5.20;;;3.43;;
11957;SDS011;6039;52.576;13.348;2022-12-24T19:54:06;10.30;;;4.13;;
11957;SDS011;6039;52.576;13.348;2022-12-24T19:59:14;6.50;;;3.63;;
11957;SDS011;6039;52.576;13.348;2022-12-24T20:04:18;6.00;;;3.80;;
11957;SDS011;6039;52.576;13.348;2022-12-24T20:09:22;8.77;;;4.03;;
11957;SDS011;6039;52.576;13.348;2022-12-24T20:14:29;7.60;;;3.60;;
11957;SDS011;6039;52.576;13.348;2022-12-24T20:19:33;6.17;;;3.97;;
11957;SDS011;6039;52.576;13.348;2022-12-24T20:24:37;7.77;;;4.40;;
11957;SDS011;6039;52.576;13.348;2022-12-24T20:29:44;6.23;;;3.60;;
11957;SDS011;6039;52.576;13.348;2022-12-24T20:34:48;5.77;;;3.60;;
11957;SDS011;6039;52.576;13.348;2022-12-24T20:39:52;7.63;;;3.37;;
11957;SDS011;6039;52.576;13.348;2022-12-24T20:44:59;6.70;;;3.40;;
11957;SDS011;6039;52.576;13.348;2022-12-24T20:50:04;5.57;;;3.40;;
11957;SDS011;6039;52.576;13.348;2022-12-24T20:55:09;8.43;;;3.23;;
11957;SDS011;6039;52.576;13.348;2022-12-24T21:00:16;6.10;;;3.23;;
11957;SDS011;6039;52.576;13.348;2022-12-24T21:05:21;5.23;;;3.40;;
11957;SDS011;6039;52.576;13.348;2022-12-24T21:10:25;5.57;;;2.80;;
11957;SDS011;6039;52.576;13.348;2022-12-24T21:15:33;4.07;;;2.60;;
11957;SDS011;6039;52.576;13.348;2022-12-24T21:20:39;4.50;;;2.57;;
11957;SDS011;6039;52.576;13.348;2022-12-24T21:25:43;4.80;;;2.90;;
11957;SDS011;6039;52.576;13.348;2022-12-24T21:30:50;5.13;;;2.53;;
11957;SDS011;6039;52.576;13.348;2022-12-24T21:35:57;6.43;;;2.57;;
11957;SDS011;6039;52.576;13.348;2022-12-24T21:41:02;8.00;;;2.93;;
11957;SDS011;6039;52.576;13.348;2022-12-24T21:46:12;6.87;;;3.00;;
11957;SDS011;6039;52.576;13.348;2022-12-24T21:51:20;3.63;;;2.37;;
11957;SDS011;6039;52.576;13.348;2022-12-24T21:56:25;5.17;;;2.83;;
11957;SDS011;6039;52.576;13.348;2022-12-24T22:01:31;4.20;;;2.70;;
11957;SDS011;6039;52.576;13.348;2022-12-24T22:06:35;7.30;;;2.67;;
11957;SDS011;6039;52.576;13.348;2022-12-24T22:11:52;6.70;;;2.77;;
11957;SDS011;6039;52.576;13.348;2022-12-24T22:16:58;7.13;;;3.03;;
11957;SDS011;6039;52.576;13.348;2022-12-24T22:22:02;4.17;;;2.80;;
11957;SDS011;6039;52.576;13.348;2022-12-24T22:27:06;8.00;;;2.97;;
11957;SDS011;6039;52.576;13.348;2022-12-24T22:32:13;7.30;;;2.50;;
11957;SDS011;6039;52.576;13.348;2022-12-24T22:37:17;5.77;;;3.17;;
11957;SDS011;6039;52.576;13.348;2022-12-24T22:42:21;6.87;;;3.00;;
11957;SDS011;6039;52.576;13.348;2022-12-24T22:47:28;8.80;;;3.63;;
11957;SDS011;6039;52.576;13.348;2022-12-24T22:52:32;7.80;;;4.10;;
11957;SDS011;6039;52.576;13.348;2022-12-24T22:57:37;7.37;;;3.40;;
11957;SDS011;6039;52.576;13.348;2022-12-24T23:02:43;13.97;;;3.47;;
11957;SDS011;6039;52.576;13.348;2022-12-24T23:07:47;9.77;;;3.27;;
11957;SDS011;6039;52.576;13.348;2022-12-24T23:12:51;5.93;;;3.30;;
11957;SDS011;6039;52.576;13.348;2022-12-24T23:18:11;6.30;;;3.33;;
11957;SDS011;6039;52.576;13.348;2022-12-24T23:23:15;6.47;;;3.60;;
11957;SDS011;6039;52.576;13.348;2022-12-24T23:28:19;7.33;;;3.63;;
11957;SDS011;6039;52.576;13.348;2022-12-24T23:33:26;7.73;;;3.73;;
11957;SDS011;6039;52.576;13.348;2022-12-24T23:38:30;7.10;;;3.60;;
11957;SDS011;6039;52.576;13.348;2022-12-24T23:43:35;9.57;;;3.70;;
11957;SDS011;6039;52.576;13.348;2022-12-24T23:48:42;7.17;;;3.13;;
11957;SDS011;6039;52.576;13.348;2022-12-24T23:53:46;7.60;;;4.27;;
11957;SDS011;6039;52.576;13.348;2022-12-24T23:58:50;12.07;;;4.37;;
